createdAt,value
2023-03-06T00:03:47.854Z,26.12
2023-03-06T00:04:47.736Z,26.04
2023-03-06T01:56:40.665Z,25.80
2023-03-06T01:57:40.665Z,25.80
2023-03-06T01:58:40.537Z,25.85
2023-03-06T01:59:40.485Z,25.84
2023-03-06T02:33:38.397Z,25.74
2023-03-06T02:34:38.349Z,25.70
2023-03-06T02:35:38.402Z,25.78
2023-03-06T02:36:38.212Z,25.78
2023-03-06T02:37:38.156Z,25.71
2023-03-06T02:38:38.094Z,25.74
2023-03-06T02:39:38.029Z,25.76
2023-03-06T02:40:37.965Z,25.70
2023-03-06T02:41:37.902Z,25.67
2023-03-06T02:42:37.855Z,25.66
2023-03-06T02:43:37.794Z,25.71
2023-03-06T02:44:37.719Z,25.74
2023-03-06T04:50:30.904Z,25.03
2023-03-06T04:51:30.868Z,25.03
2023-03-06T04:52:30.824Z,25.04
2023-03-06T04:53:30.795Z,25.06
2023-03-06T04:54:30.769Z,25.06
2023-03-06T04:55:30.736Z,25.03
2023-03-06T04:56:30.689Z,25.00
2023-03-06T04:57:30.646Z,25.00
2023-03-06T04:58:30.614Z,25.03
2023-03-06T04:59:30.569Z,24.96
2023-03-06T05:00:30.539Z,25.02
2023-03-06T05:01:30.492Z,25.00
2023-03-06T05:02:30.468Z,25.03
2023-03-06T05:03:30.412Z,25.02
2023-03-06T05:04:30.379Z,25.02
2023-03-06T05:05:30.340Z,25.00
2023-03-06T05:06:30.297Z,24.98
2023-03-06T05:07:30.255Z,24.98
2023-03-06T05:08:30.213Z,24.99
2023-03-06T05:09:30.209Z,24.99
2023-03-06T05:10:30.129Z,24.96
2023-03-06T05:11:30.091Z,24.96
2023-03-06T05:12:30.057Z,24.98
2023-03-06T05:13:30.018Z,24.95
2023-03-06T05:14:29.971Z,24.96
2023-03-06T05:15:29.996Z,24.96
2023-03-06T05:16:29.913Z,24.93
2023-03-06T05:17:29.810Z,24.95
2023-03-06T05:18:29.795Z,24.98
2023-03-06T05:19:29.721Z,24.95
2023-03-06T05:20:29.667Z,24.96
2023-03-06T05:21:29.633Z,24.96
2023-03-06T05:22:29.590Z,24.89
2023-03-06T05:23:29.546Z,24.95
2023-03-06T05:24:29.511Z,24.91
2023-03-06T05:25:29.477Z,24.92
2023-03-06T05:26:29.429Z,24.95
2023-03-06T05:27:29.393Z,24.94
2023-03-06T05:39:28.900Z,24.83
2023-03-06T05:40:28.848Z,24.89
2023-03-06T05:41:28.803Z,24.88
2023-03-06T05:42:28.901Z,24.85
2023-03-06T05:43:28.739Z,24.87
2023-03-06T05:44:28.679Z,24.85
2023-03-06T05:45:28.652Z,24.85
2023-03-06T05:46:28.609Z,24.87
2023-03-06T05:47:28.562Z,24.85
2023-03-06T05:48:28.521Z,24.85
2023-03-06T05:49:28.477Z,24.83
2023-03-06T05:50:28.436Z,24.84
2023-03-06T05:51:28.405Z,24.81
2023-03-06T05:57:28.147Z,24.85
2023-03-06T05:58:28.119Z,24.81
2023-03-06T05:59:28.064Z,24.83
2023-03-06T06:00:28.020Z,24.78
2023-03-06T06:01:27.981Z,24.87
2023-03-06T06:02:27.981Z,24.76
2023-03-06T06:03:27.967Z,24.81
2023-03-06T06:04:27.870Z,24.80
2023-03-06T06:05:27.821Z,24.80
2023-03-06T06:06:27.825Z,24.84
2023-03-06T06:07:27.738Z,24.81
2023-03-06T07:59:20.727Z,28.92
2023-03-06T08:00:20.617Z,29.26
2023-03-06T08:01:20.531Z,29.37
2023-03-06T08:02:21.433Z,29.61
2023-03-06T08:03:20.423Z,29.60
2023-03-06T08:04:20.428Z,29.77
2023-03-06T08:05:20.307Z,29.91
2023-03-06T08:06:20.274Z,30.02
2023-03-06T08:07:20.216Z,30.11
2023-03-06T08:08:20.185Z,30.31
2023-03-06T08:09:20.128Z,30.38
2023-03-06T08:10:20.072Z,30.53
2023-03-06T08:11:20.067Z,30.62
2023-03-06T08:12:19.954Z,30.72
2023-03-06T08:13:19.891Z,30.90
2023-03-06T08:14:19.838Z,31.14
2023-03-06T08:15:19.809Z,31.78
2023-03-06T08:16:19.744Z,31.55
2023-03-06T08:17:19.657Z,31.32
2023-03-06T08:18:19.639Z,31.37
2023-03-06T08:19:19.548Z,31.20
2023-03-06T08:20:20.393Z,31.12
2023-03-06T08:21:19.421Z,31.11
2023-03-06T08:22:19.373Z,31.10
2023-03-06T08:23:19.321Z,31.05
2023-03-06T08:24:19.276Z,30.90
2023-03-06T08:25:19.224Z,30.86
2023-03-06T08:26:19.168Z,30.88
2023-03-06T08:27:19.267Z,30.72
2023-03-06T08:28:19.064Z,30.64
2023-03-06T08:29:19.045Z,30.64
2023-03-06T08:30:18.972Z,30.63
2023-03-06T08:31:19.060Z,30.60
2023-03-06T08:32:18.964Z,30.59
2023-03-06T08:33:18.837Z,30.54
2023-03-06T08:34:18.790Z,30.51
2023-03-06T08:35:18.739Z,30.49
2023-03-06T08:36:18.652Z,30.44
2023-03-06T08:37:18.639Z,30.40
2023-03-06T08:38:18.493Z,30.40
2023-03-06T08:39:18.392Z,30.37
2023-03-06T08:40:18.323Z,30.35
2023-03-06T08:41:18.237Z,30.29
2023-03-06T08:42:18.159Z,30.30
2023-03-06T08:43:18.295Z,30.27
2023-03-06T08:44:18.005Z,30.18
2023-03-06T08:45:17.888Z,30.12
2023-03-06T08:46:17.773Z,30.09
2023-03-06T09:14:14.844Z,29.23
2023-03-06T09:16:14.670Z,29.35
2023-03-06T09:17:14.699Z,29.32
2023-03-06T09:18:14.456Z,29.33
2023-03-06T09:19:14.391Z,29.26
2023-03-06T09:20:14.332Z,29.29
2023-03-06T09:21:14.285Z,29.33
2023-03-06T09:22:14.201Z,29.36
2023-03-06T09:23:14.163Z,29.43
2023-03-06T09:24:14.148Z,29.42
2023-03-06T09:25:14.080Z,29.32
2023-03-06T09:26:14.029Z,29.30
2023-03-06T09:27:13.967Z,29.16
2023-03-06T09:28:13.928Z,29.25
2023-03-06T09:29:13.883Z,29.17
2023-03-06T09:30:13.869Z,29.13
2023-03-06T09:31:13.869Z,29.23
2023-03-06T09:32:13.787Z,29.17
2023-03-06T09:33:13.693Z,29.15
2023-03-06T09:34:13.636Z,29.17
2023-03-06T09:35:13.615Z,29.17
2023-03-06T09:36:13.553Z,29.10
2023-03-06T09:37:14.244Z,29.10
2023-03-06T09:38:13.449Z,29.13
2023-03-06T09:39:13.399Z,29.12
2023-03-06T09:40:13.353Z,29.06
2023-03-06T09:41:13.287Z,29.05
2023-03-06T10:50:08.489Z,26.83
2023-03-06T10:52:07.639Z,26.88
2023-03-06T10:53:07.525Z,26.88
2023-03-06T10:54:07.422Z,26.90
2023-03-06T10:55:07.327Z,26.90
2023-03-06T10:56:07.240Z,26.87
2023-03-06T10:57:07.141Z,26.91
2023-03-06T10:58:07.036Z,26.90
2023-03-06T10:59:06.928Z,26.93
2023-03-06T11:00:06.824Z,26.96
2023-03-06T11:01:06.770Z,26.91
2023-03-06T11:02:06.655Z,26.94
2023-03-06T11:03:06.557Z,26.88
2023-03-06T11:04:06.481Z,26.95
2023-03-06T11:05:06.349Z,26.92
2023-03-06T11:06:06.274Z,26.88
2023-03-06T11:07:06.162Z,26.92
2023-03-06T11:08:06.048Z,26.89
2023-03-06T11:09:05.958Z,26.88
2023-03-06T11:10:05.842Z,26.92
2023-03-06T11:11:05.826Z,26.89
2023-03-06T11:12:05.699Z,26.95
2023-03-06T11:13:05.606Z,27.04
2023-03-06T11:14:05.479Z,27.21
2023-03-06T11:15:05.448Z,27.41
2023-03-06T11:16:05.303Z,27.50
2023-03-06T11:17:05.178Z,27.66
2023-03-06T11:18:05.081Z,27.76
2023-03-06T11:19:04.974Z,27.96
2023-03-06T11:20:04.863Z,28.01
2023-03-06T11:21:04.756Z,28.11
2023-03-06T11:22:04.648Z,28.08
2023-03-06T11:23:04.548Z,28.07
2023-03-06T11:24:04.523Z,28.18
2023-03-06T11:25:04.510Z,28.11
2023-03-06T11:27:04.345Z,28.22
2023-03-06T11:28:04.248Z,28.19
2023-03-06T11:29:04.192Z,28.31
2023-03-06T11:30:04.044Z,28.29
2023-03-06T11:32:03.832Z,28.31
2023-03-06T11:33:03.708Z,28.35
2023-03-06T11:34:03.616Z,28.36
2023-03-06T11:35:03.500Z,28.42
2023-03-06T11:36:03.398Z,28.49
2023-03-06T11:37:03.359Z,28.54
2023-03-06T11:38:03.367Z,28.70
2023-03-06T12:41:57.891Z,27.15
2023-03-06T12:42:57.844Z,27.64
2023-03-06T12:43:57.794Z,27.14
2023-03-06T12:44:57.760Z,26.22
2023-03-06T12:45:57.726Z,25.00
2023-03-06T12:46:57.658Z,24.84
2023-03-06T12:47:57.618Z,24.94
2023-03-06T12:48:57.556Z,26.19
2023-03-06T12:49:57.501Z,26.63
2023-03-06T12:50:57.459Z,26.97
2023-03-06T12:51:57.379Z,27.04
2023-03-06T12:52:57.283Z,27.12
2023-03-06T12:53:57.188Z,27.24
2023-03-06T12:54:57.108Z,27.26
2023-03-06T12:55:57.101Z,27.25
2023-03-06T12:56:56.966Z,27.30
2023-03-06T12:57:56.881Z,27.32
2023-03-06T12:58:56.812Z,27.30
2023-03-06T12:59:56.764Z,27.33
2023-03-06T13:01:03.562Z,27.37
2023-03-06T13:01:57.566Z,27.44
2023-03-06T13:02:56.454Z,27.40
2023-03-06T13:03:56.333Z,27.47
2023-03-06T13:05:56.664Z,27.48
2023-03-06T13:06:56.005Z,27.49
2023-03-06T13:07:55.884Z,27.50
2023-03-06T13:08:55.774Z,27.50
2023-03-06T13:09:55.654Z,27.51
2023-03-06T13:10:55.548Z,27.51
2023-03-06T13:11:56.102Z,27.53
2023-03-06T13:12:55.363Z,27.53
2023-03-06T13:13:55.311Z,27.55
2023-03-06T13:14:55.344Z,27.51
2023-03-06T13:15:55.207Z,27.55
2023-03-06T13:16:55.148Z,27.55
2023-03-06T13:17:55.090Z,27.57
2023-03-06T13:18:55.042Z,27.54
2023-03-06T13:19:54.977Z,27.54
2023-03-06T13:20:54.914Z,27.58
2023-03-06T13:21:54.853Z,27.59
2023-03-06T13:22:54.798Z,27.55
2023-03-06T13:23:54.754Z,27.60
2023-03-06T13:24:55.048Z,27.59
2023-03-06T13:25:55.622Z,27.59
2023-03-06T13:26:54.486Z,27.58
2023-03-06T13:27:54.357Z,27.60
2023-03-06T13:28:54.269Z,27.58
2023-03-06T13:29:54.140Z,27.60
2023-03-06T13:30:54.066Z,27.62
2023-03-06T13:31:53.909Z,27.60
2023-03-06T13:32:53.830Z,27.55
2023-03-06T13:33:53.698Z,27.59
2023-03-06T13:34:53.582Z,27.63
2023-03-06T13:35:53.562Z,27.62
2023-03-06T13:36:53.462Z,27.63
2023-03-06T13:37:53.403Z,27.60
2023-03-06T13:38:53.366Z,27.66
2023-03-06T13:39:53.313Z,27.58
2023-03-06T14:15:50.250Z,27.71
2023-03-06T14:16:50.770Z,27.68
2023-03-06T14:17:49.944Z,27.67
2023-03-06T14:18:49.896Z,27.67
2023-03-06T14:19:49.734Z,27.68
2023-03-06T14:20:49.624Z,27.69
2023-03-06T14:21:49.545Z,27.68
2023-03-06T14:22:49.435Z,27.69
2023-03-06T14:23:49.333Z,27.68
2023-03-06T14:24:49.231Z,27.71
2023-03-06T14:25:49.117Z,27.68
2023-03-06T14:26:49.012Z,27.72
2023-03-06T14:27:48.914Z,27.71
2023-03-06T14:28:48.814Z,27.69
2023-03-06T14:29:48.785Z,27.71
2023-03-06T14:30:48.634Z,27.75
2023-03-06T14:31:48.540Z,27.71
2023-03-06T14:32:48.433Z,27.72
2023-03-06T14:33:48.314Z,27.69
2023-03-06T14:34:48.228Z,27.69
2023-03-06T14:35:48.230Z,27.73
2023-03-06T14:36:48.028Z,27.73
2023-03-06T14:37:47.934Z,27.69
2023-03-06T14:38:47.822Z,27.71
2023-03-06T14:39:47.732Z,27.70
2023-03-06T14:40:47.620Z,27.72
2023-03-06T14:41:47.513Z,27.69
2023-03-06T14:42:47.414Z,27.73
2023-03-06T14:43:47.302Z,27.73
2023-03-06T14:44:47.202Z,27.70
2023-03-06T14:45:47.104Z,27.72
2023-03-06T14:46:47.054Z,27.71
2023-03-06T14:47:46.940Z,27.76
2023-03-06T14:48:46.850Z,27.76
2023-03-06T14:49:46.761Z,27.75
2023-03-06T14:50:46.686Z,27.69
2023-03-06T14:51:46.556Z,27.75
2023-03-06T14:52:46.443Z,27.69
2023-03-06T14:53:46.338Z,27.69
2023-03-06T14:54:46.252Z,27.72
2023-03-06T14:55:46.170Z,27.72
2023-03-06T14:56:46.190Z,27.71
2023-03-06T14:57:46.002Z,27.73
2023-03-06T14:58:45.872Z,27.73
2023-03-06T14:59:45.788Z,27.73
2023-03-06T15:00:45.702Z,27.75
2023-03-06T15:01:45.628Z,27.70
2023-03-06T15:02:45.571Z,27.70
2023-03-06T15:03:45.387Z,27.71
2023-03-06T15:04:45.308Z,27.73
2023-03-06T15:05:45.198Z,27.76
2023-03-06T15:06:45.238Z,27.73
2023-03-06T15:07:44.979Z,27.73
2023-03-06T15:08:44.870Z,27.74
2023-03-06T15:09:44.768Z,27.70
2023-03-06T15:10:44.658Z,27.71
2023-03-06T15:11:44.577Z,27.76
2023-03-06T15:12:44.455Z,27.77
2023-03-06T15:13:44.348Z,27.70
2023-03-06T15:14:44.244Z,27.70
2023-03-06T15:15:44.148Z,27.77
2023-03-06T15:16:44.101Z,27.78
2023-03-06T15:17:43.949Z,27.73
2023-03-06T15:18:43.853Z,27.74
2023-03-06T15:19:43.755Z,27.74
2023-03-06T15:20:43.672Z,27.74
2023-03-06T15:21:43.558Z,27.75
2023-03-06T15:22:43.516Z,27.78
2023-03-06T15:23:43.377Z,27.74
2023-03-06T15:24:43.299Z,27.73
2023-03-06T16:40:37.149Z,28.13
2023-03-06T16:41:37.101Z,28.09
2023-03-06T16:42:37.019Z,28.06
2023-03-06T16:43:36.961Z,28.10
2023-03-06T16:45:36.825Z,28.23
2023-03-06T17:18:34.937Z,28.36
2023-03-06T17:19:34.889Z,28.29
2023-03-06T17:20:34.848Z,28.30
2023-03-06T17:21:34.764Z,28.37
2023-03-06T17:22:34.756Z,28.39
2023-03-06T17:23:34.672Z,28.26
2023-03-06T17:24:34.600Z,28.33
2023-03-06T17:25:34.534Z,28.41
2023-03-06T17:26:34.504Z,28.36
2023-03-06T17:27:34.442Z,28.30
2023-03-06T17:28:34.380Z,28.36
2023-03-06T17:29:34.321Z,28.37
2023-03-06T17:30:34.273Z,28.31
2023-03-06T17:31:34.244Z,28.30
2023-03-06T17:32:34.236Z,28.31
2023-03-06T17:33:34.121Z,28.31
2023-03-06T17:34:34.070Z,28.33
2023-03-06T17:35:34.076Z,28.25
2023-03-06T17:36:33.990Z,28.30
2023-03-06T17:37:33.948Z,28.37
2023-03-06T17:38:33.893Z,28.38
2023-03-06T17:39:33.846Z,28.34
2023-03-06T17:40:33.813Z,28.31
2023-03-06T17:41:33.756Z,28.28
2023-03-06T17:42:33.716Z,28.30
2023-03-06T17:43:33.679Z,28.34
2023-03-06T17:44:33.635Z,28.33
2023-03-06T17:45:33.595Z,28.34
2023-03-06T17:46:33.617Z,28.32
2023-03-06T17:47:33.507Z,28.39
2023-03-06T17:48:33.490Z,28.33
2023-03-06T17:49:33.430Z,28.34
2023-03-06T17:50:33.406Z,28.38
2023-03-06T17:51:33.362Z,28.27
2023-03-06T17:52:33.323Z,28.27
2023-03-06T19:45:28.081Z,28.18
2023-03-06T19:46:28.037Z,28.21
2023-03-06T19:47:28.010Z,28.21
2023-03-06T19:48:27.972Z,28.23
2023-03-06T19:49:27.951Z,28.21
2023-03-06T19:50:27.910Z,28.16
2023-03-06T19:51:27.863Z,28.21
2023-03-06T19:52:27.827Z,28.26
2023-03-06T19:53:27.777Z,28.29
2023-03-06T19:54:27.746Z,28.21
2023-03-06T19:55:27.694Z,28.19
2023-03-06T19:56:27.652Z,28.27
2023-03-06T19:57:27.619Z,28.22
2023-03-06T19:58:27.595Z,28.18
2023-03-06T19:59:27.534Z,28.19
2023-03-06T20:00:27.503Z,28.16
2023-03-06T20:01:27.521Z,28.18
2023-03-06T20:02:27.413Z,28.18
2023-03-06T20:03:27.355Z,28.19
2023-03-06T20:04:27.385Z,28.14
2023-03-06T20:05:27.281Z,28.13
2023-03-06T20:06:27.239Z,28.20
2023-03-06T20:07:27.221Z,28.23
2023-03-06T20:08:27.161Z,28.17
2023-03-06T20:09:27.129Z,28.23
2023-03-06T20:10:27.091Z,28.20
2023-03-06T20:11:27.054Z,28.21
2023-03-06T20:12:27.016Z,28.21
2023-03-06T20:13:27.002Z,28.18
2023-03-06T20:14:26.949Z,28.18
2023-03-06T20:15:26.957Z,28.16
2023-03-06T20:16:26.888Z,28.24
2023-03-06T20:17:26.871Z,28.17
2023-03-06T20:18:26.834Z,28.20
2023-03-06T20:19:26.787Z,28.16
2023-03-06T20:20:26.767Z,28.20
2023-03-06T20:21:26.718Z,28.15
2023-03-06T20:22:26.678Z,28.17
2023-03-06T20:23:26.661Z,28.20
2023-03-06T20:24:26.595Z,28.20
2023-03-06T20:25:26.555Z,28.17
2023-03-06T20:26:27.504Z,28.15
2023-03-06T20:27:26.470Z,28.18
2023-03-06T20:28:26.423Z,28.16
2023-03-06T20:29:28.229Z,28.15
2023-03-06T20:30:31.476Z,28.17
2023-03-06T20:31:27.281Z,28.11
2023-03-06T20:32:26.189Z,28.13
2023-03-06T20:33:26.041Z,28.16
2023-03-06T20:38:25.509Z,28.14
2023-03-06T20:39:25.424Z,28.18
2023-03-06T20:40:25.391Z,28.15
2023-03-06T20:41:25.316Z,28.14
2023-03-06T20:42:25.306Z,28.17
2023-03-06T20:43:25.241Z,28.14
2023-03-06T20:44:25.190Z,28.17
2023-03-06T20:45:25.159Z,28.12
2023-03-06T20:46:25.126Z,28.13
2023-03-06T20:47:25.086Z,28.13
2023-03-06T20:48:25.055Z,28.15
2023-03-06T20:49:27.185Z,28.10
2023-03-06T20:50:24.964Z,28.10
2023-03-06T20:51:24.930Z,28.11
2023-03-06T20:52:24.881Z,28.12
2023-03-06T20:53:24.840Z,28.13
2023-03-06T20:54:24.804Z,28.13
2023-03-06T20:55:24.766Z,28.14
2023-03-06T20:56:24.731Z,28.10
2023-03-06T20:57:24.703Z,28.11
2023-03-06T20:58:24.674Z,28.05
2023-03-06T20:59:24.636Z,28.12
2023-03-06T21:00:24.602Z,28.08
2023-03-06T21:01:24.601Z,28.12
2023-03-06T21:02:24.526Z,28.11
2023-03-06T21:03:24.504Z,28.08
2023-03-06T21:04:24.446Z,28.07
2023-03-06T21:05:24.381Z,28.11
2023-03-06T21:06:24.345Z,28.07
2023-03-06T21:07:24.289Z,28.08
2023-03-06T21:08:24.262Z,28.13
2023-03-06T21:09:24.204Z,28.11
2023-03-06T21:10:24.149Z,28.08
2023-03-06T21:11:24.080Z,28.03
2023-03-06T21:12:24.033Z,28.10
2023-03-06T21:13:23.980Z,28.14
2023-03-06T21:14:23.909Z,28.10
2023-03-06T21:15:23.867Z,28.12
2023-03-06T21:16:23.863Z,28.08
2023-03-06T21:17:23.798Z,28.11
2023-03-06T21:18:23.762Z,28.07
2023-03-06T21:19:23.715Z,28.04
2023-03-06T21:20:23.670Z,28.09
2023-03-06T21:21:23.633Z,28.08
2023-03-06T21:22:23.604Z,28.04
2023-03-06T21:23:23.555Z,28.08
2023-03-06T21:24:23.487Z,28.04
2023-03-06T21:25:23.411Z,28.07
2023-03-06T21:26:23.353Z,28.04
2023-03-06T21:27:23.299Z,28.05
2023-03-06T22:22:20.531Z,27.87
2023-03-06T22:23:20.469Z,27.91
2023-03-06T22:25:20.397Z,27.87
2023-03-06T22:26:20.347Z,27.87
2023-03-06T22:28:20.284Z,27.87
2023-03-06T22:29:20.224Z,27.86
2023-03-06T22:30:20.187Z,27.84
2023-03-06T22:31:20.204Z,27.87
2023-03-06T22:33:20.119Z,27.80
2023-03-06T22:34:20.039Z,27.80
2023-03-06T23:16:17.801Z,27.71
2023-03-06T23:17:17.751Z,27.69
2023-03-06T23:18:17.699Z,27.67
2023-03-06T23:19:17.645Z,27.67
2023-03-06T23:20:17.590Z,27.70
2023-03-06T23:21:17.538Z,27.67
2023-03-06T23:22:17.487Z,27.69
2023-03-06T23:23:17.441Z,27.66
2023-03-06T23:24:17.393Z,27.65
2023-03-06T23:25:17.345Z,27.65
2023-03-06T23:26:17.303Z,27.63
2023-03-06T23:27:17.259Z,27.62
2023-03-06T23:28:17.224Z,27.63
2023-03-06T23:29:17.197Z,27.62
2023-03-06T23:30:17.172Z,27.65
2023-03-06T23:31:17.163Z,27.66
2023-03-06T23:32:17.087Z,27.60
2023-03-06T23:33:17.001Z,27.62
2023-03-06T23:34:16.964Z,27.58
2023-03-06T23:35:16.906Z,27.60
2023-03-06T23:36:16.838Z,27.63
2023-03-06T23:37:16.787Z,27.59
2023-03-06T23:38:16.756Z,27.60
2023-03-06T23:39:16.713Z,27.56
2023-03-06T23:40:16.625Z,27.60
2023-03-06T23:41:16.560Z,27.60
2023-03-06T23:42:16.495Z,27.60
2023-03-06T23:43:16.437Z,27.59
2023-03-06T23:44:16.354Z,27.59
2023-03-06T23:45:16.296Z,27.59
2023-03-06T23:46:16.229Z,27.60
2023-03-06T23:47:16.152Z,27.60
2023-03-06T23:48:16.085Z,27.56
2023-03-06T23:49:16.015Z,27.57
2023-03-06T23:50:15.958Z,27.62
2023-03-06T23:51:15.900Z,27.60
2023-03-06T23:52:15.817Z,27.57
2023-03-06T23:53:15.720Z,27.59
2023-03-06T23:54:15.634Z,27.59
2023-03-06T23:55:15.545Z,27.62
2023-03-06T23:56:15.506Z,27.58
2023-03-06T23:57:15.385Z,27.56
2023-03-06T23:58:15.316Z,27.50
2023-03-06T23:59:15.245Z,27.52
